Time;durP1;ratioP1;P1;durP2;ratioP2;P2;SDS_P1;SDS_P2;PMS_P1;PMS_P2;Temp;Humidity;BMP_temperature;BMP_pressure;BME280_temperature;BME280_humidity;BME280_pressure;Samples;Min_cycle;Max_cycle;Signal;HPM_P1;HPM_P2
2023/05/05 00:00:45;;;;;;;8.40;7.13;;;;;;;12.19;67.20;94996.63;4212476;28;20131;-59
2023/05/05 00:02:47;;;;;;;8.52;7.63;;;;;;;11.80;68.33;94994.53;4220474;28;20082;-60
2023/05/05 00:04:49;;;;;;;10.02;7.88;;;;;;;11.17;71.01;95000.16;4218890;28;20048;-59
2023/05/05 00:06:50;;;;;;;12.02;8.00;;;;;;;10.95;72.11;95001.47;4225445;28;20109;-58
2023/05/05 00:08:52;;;;;;;10.65;8.77;;;;;;;10.88;72.45;94990.78;4221842;28;20047;-56
2023/05/05 00:10:55;;;;;;;10.85;9.45;;;;;;;10.77;73.08;94994.47;4227529;28;20074;-59
2023/05/05 00:12:56;;;;;;;11.43;9.77;;;;;;;10.81;72.90;94995.00;4225034;28;20056;-60
2023/05/05 00:14:58;;;;;;;13.82;10.23;;;;;;;10.95;73.09;94985.75;4226331;28;20385;-59
2023/05/05 00:17:00;;;;;;;13.20;9.10;;;;;;;11.02;72.14;94986.78;4225598;28;20055;-60
2023/05/05 00:19:01;;;;;;;12.90;9.38;;;;;;;11.11;72.22;94983.22;4225213;28;20446;-58
2023/05/05 00:21:03;;;;;;;11.43;8.85;;;;;;;11.24;71.95;94981.00;4218933;28;20079;-60
2023/05/05 00:23:05;;;;;;;11.25;8.90;;;;;;;11.33;71.09;94981.06;4213721;28;20230;-61
2023/05/05 00:25:07;;;;;;;13.73;9.13;;;;;;;11.39;70.69;94983.06;4216704;28;20558;-59
2023/05/05 00:27:09;;;;;;;11.23;9.18;;;;;;;11.13;71.15;94985.72;4217533;28;20067;-58
2023/05/05 00:29:11;;;;;;;11.32;8.75;;;;;;;11.14;71.43;94987.34;4211592;28;20052;-61
2023/05/05 00:31:15;;;;;;;11.43;8.77;;;;;;;11.25;71.28;94984.47;4212458;28;20094;-59
2023/05/05 00:33:17;;;;;;;9.93;8.43;;;;;;;11.36;70.74;94984.19;4210505;28;20138;-59
2023/05/05 00:35:18;;;;;;;11.18;8.85;;;;;;;11.48;70.18;94984.72;4221142;28;20090;-60
2023/05/05 00:37:20;;;;;;;10.48;8.43;;;;;;;11.57;69.60;94990.81;4220525;28;20486;-58
2023/05/05 00:39:22;;;;;;;12.70;9.18;;;;;;;11.47;69.71;94989.16;4217644;28;20055;-60
2023/05/05 00:41:23;;;;;;;11.70;9.23;;;;;;;11.42;70.06;94990.59;4215539;28;20064;-59
2023/05/05 00:43:25;;;;;;;11.07;9.00;;;;;;;11.44;70.42;94986.00;4211355;28;20082;-60
2023/05/05 00:45:28;;;;;;;11.90;9.52;;;;;;;11.51;70.09;94994.06;4211768;28;20127;-58
2023/05/05 00:47:30;;;;;;;13.93;9.25;;;;;;;11.53;69.68;94994.75;4207947;28;20048;-61
2023/05/05 00:49:32;;;;;;;10.20;8.52;;;;;;;11.45;70.11;94993.72;4205815;28;20044;-60
2023/05/05 00:51:34;;;;;;;11.68;8.93;;;;;;;11.46;70.40;94995.41;4204176;28;20045;-60
2023/05/05 00:53:37;;;;;;;10.73;8.50;;;;;;;11.47;70.34;94986.53;4218157;28;20044;-61
2023/05/05 00:55:39;;;;;;;11.00;9.05;;;;;;;11.57;69.96;94994.28;4219851;28;20172;-61
2023/05/05 00:57:41;;;;;;;11.55;9.10;;;;;;;11.59;69.53;94991.50;4216054;28;20476;-60
2023/05/05 00:59:43;;;;;;;11.45;8.55;;;;;;;11.63;69.25;94983.13;4219919;28;20075;-62
2023/05/05 01:01:45;;;;;;;11.82;8.45;;;;;;;11.69;69.05;94989.56;4217558;28;20061;-60
2023/05/05 01:03:47;;;;;;;11.00;8.73;;;;;;;11.73;68.94;94984.84;4217620;28;20056;-60
2023/05/05 01:06:09;;;;;;;10.13;8.57;;;;;;;11.78;68.67;94983.34;4210270;28;20041;-60
2023/05/05 01:08:16;;;;;;;11.38;8.77;;;;;;;11.81;68.41;94988.31;4200022;28;20048;-60
2023/05/05 01:10:34;;;;;;;9.75;8.23;;;;;;;11.79;68.31;94985.03;4212011;28;20052;-61
2023/05/05 01:12:45;;;;;;;10.70;8.82;;;;;;;11.81;68.27;94983.06;4219113;28;20102;-60
2023/05/05 01:14:54;;;;;;;15.50;8.82;;;;;;;11.82;68.46;94979.44;4202786;28;20051;-60
2023/05/05 01:17:03;;;;;;;10.63;8.55;;;;;;;11.84;68.18;94987.16;4223599;28;20043;-61
2023/05/05 01:19:26;;;;;;;11.35;8.65;;;;;;;11.83;68.08;94977.63;4221873;28;20083;-60
2023/05/05 01:21:32;;;;;;;10.80;8.50;;;;;;;11.82;68.12;94979.44;4206969;28;20047;-60
2023/05/05 01:23:34;;;;;;;9.18;8.23;;;;;;;11.82;67.93;94986.50;4213189;28;20071;-61
2023/05/05 01:25:55;;;;;;;11.65;8.30;;;;;;;11.82;68.27;94984.69;4213379;28;20048;-60
2023/05/05 01:28:16;;;;;;;11.77;8.50;;;;;;;11.78;68.45;94977.28;4219061;28;20722;-60
2023/05/05 01:30:42;;;;;;;10.13;8.57;;;;;;;11.40;69.48;94982.06;4202862;28;20083;-62
2023/05/05 01:32:50;;;;;;;14.63;9.90;;;;;;;11.06;70.86;94983.69;4203146;28;20052;-62
2023/05/05 01:34:59;;;;;;;14.07;9.27;;;;;;;10.78;71.91;94979.59;4225830;28;20082;-61
2023/05/05 01:37:10;;;;;;;13.45;9.32;;;;;;;10.23;73.95;94981.41;4226817;28;20047;-62
2023/05/05 01:39:14;;;;;;;11.82;9.90;;;;;;;10.14;75.26;94981.50;4227557;28;20047;-61
2023/05/05 01:41:19;;;;;;;12.55;10.02;;;;;;;10.02;76.04;94978.25;4226969;28;20120;-59
2023/05/05 01:43:22;;;;;;;15.13;9.52;;;;;;;10.19;76.12;94974.00;4229137;28;20562;-57
2023/05/05 01:45:28;;;;;;;12.10;9.55;;;;;;;10.34;74.80;94976.94;4229231;28;20040;-59
2023/05/05 01:47:30;;;;;;;11.15;9.95;;;;;;;10.50;74.77;94977.09;4228237;28;20099;-61
2023/05/05 01:49:33;;;;;;;9.40;7.88;;;;;;;10.64;73.58;94973.09;4227445;28;20051;-60
2023/05/05 01:51:35;;;;;;;11.30;9.43;;;;;;;10.76;72.49;94964.03;4223001;28;20570;-61
2023/05/05 01:53:37;;;;;;;13.93;8.98;;;;;;;10.88;71.92;94958.50;4219844;28;20139;-59
2023/05/05 01:55:40;;;;;;;9.88;8.20;;;;;;;10.93;71.39;94959.72;4223970;28;20503;-61
2023/05/05 01:57:41;;;;;;;11.40;8.10;;;;;;;10.96;71.22;94967.25;4220834;28;20079;-67
2023/05/05 01:59:43;;;;;;;11.65;8.18;;;;;;;10.99;70.98;94955.63;4186657;28;20529;-61
2023/05/05 02:01:46;;;;;;;11.77;8.05;;;;;;;11.02;70.64;94961.41;4223293;28;20074;-61
2023/05/05 02:03:49;;;;;;;11.13;8.70;;;;;;;11.05;70.71;94958.44;4225830;28;20501;-59
2023/05/05 02:05:52;;;;;;;10.73;8.27;;;;;;;11.07;70.47;94958.31;4228754;28;20039;-59
2023/05/05 02:07:57;;;;;;;10.40;7.60;;;;;;;11.10;70.66;94957.16;4226791;28;20153;-62
2023/05/05 02:10:00;;;;;;;10.23;7.82;;;;;;;11.15;70.46;94960.16;4226834;28;20054;-59
2023/05/05 02:12:03;;;;;;;9.82;7.55;;;;;;;11.13;69.95;94962.09;4226414;28;20047;-61
2023/05/05 02:14:06;;;;;;;9.48;7.10;;;;;;;11.11;70.10;94953.56;4224693;28;20052;-61
2023/05/05 02:16:09;;;;;;;9.10;6.65;;;;;;;11.06;69.91;94962.72;4212892;28;20197;-61
2023/05/05 02:18:11;;;;;;;9.80;6.88;;;;;;;10.99;70.55;94963.50;4211312;28;20079;-63
2023/05/05 02:20:13;;;;;;;7.32;6.40;;;;;;;11.03;70.31;94956.97;4213731;28;20569;-62
2023/05/05 02:22:15;;;;;;;9.05;6.30;;;;;;;11.07;70.32;94955.69;4213958;28;20048;-63
2023/05/05 02:24:17;;;;;;;7.82;6.25;;;;;;;11.10;69.65;94958.00;4225505;28;20043;-62
2023/05/05 02:26:20;;;;;;;9.77;6.95;;;;;;;11.12;69.38;94963.06;4216586;28;20059;-61
2023/05/05 02:28:31;;;;;;;7.90;5.90;;;;;;;11.16;69.85;94956.53;4211581;28;20048;-59
2023/05/05 02:30:34;;;;;;;8.05;6.20;;;;;;;11.20;69.18;94958.69;4215324;28;20093;-61
2023/05/05 02:32:41;;;;;;;7.97;5.75;;;;;;;11.21;68.92;94956.91;4218294;28;20437;-58
2023/05/05 02:34:44;;;;;;;8.60;6.57;;;;;;;11.22;69.15;94956.72;4223618;28;20445;-61
2023/05/05 02:36:46;;;;;;;10.07;6.43;;;;;;;11.25;68.96;94953.81;4220177;28;20113;-60
2023/05/05 02:38:55;;;;;;;7.53;5.97;;;;;;;11.28;68.85;94958.72;4224049;28;20089;-59
2023/05/05 02:40:57;;;;;;;9.25;6.13;;;;;;;11.31;68.79;94956.78;4221088;28;20522;-60
2023/05/05 02:43:02;;;;;;;7.32;5.60;;;;;;;11.31;68.70;94962.84;4212253;28;20055;-60
2023/05/05 02:45:11;;;;;;;8.52;6.05;;;;;;;11.30;68.41;94953.34;4210375;28;20048;-61
2023/05/05 02:47:12;;;;;;;8.25;5.80;;;;;;;11.30;68.50;94955.97;4200521;28;20091;-62
2023/05/05 02:49:14;;;;;;;6.90;6.20;;;;;;;11.31;68.47;94954.97;4212353;28;20080;-62
2023/05/05 02:51:16;;;;;;;7.03;5.90;;;;;;;11.33;68.52;94954.81;4212696;28;20067;-59
2023/05/05 02:53:19;;;;;;;8.30;5.57;;;;;;;11.36;68.27;94957.97;4210550;28;20097;-60
2023/05/05 02:55:20;;;;;;;8.80;6.13;;;;;;;11.40;68.27;94951.44;4210650;28;20059;-62
2023/05/05 02:57:29;;;;;;;6.15;5.40;;;;;;;11.41;67.92;94950.44;4220534;28;20391;-60
2023/05/05 02:59:49;;;;;;;7.72;5.32;;;;;;;11.40;67.83;94951.44;4223886;28;20113;-60
2023/05/05 03:02:13;;;;;;;6.50;5.38;;;;;;;11.41;67.56;94953.06;4227519;27;20047;-61
2023/05/05 03:04:18;;;;;;;6.00;5.15;;;;;;;11.42;67.69;94956.50;4210092;28;20051;-61
2023/05/05 03:06:21;;;;;;;6.00;4.97;;;;;;;11.44;67.46;94954.53;4217367;28;20039;-60
2023/05/05 03:08:29;;;;;;;6.07;5.47;;;;;;;11.42;67.38;94956.50;4226067;28;20448;-59
2023/05/05 03:10:37;;;;;;;7.45;5.35;;;;;;;11.37;67.51;94959.59;4224186;28;20064;-60
2023/05/05 03:12:44;;;;;;;7.15;5.70;;;;;;;11.40;67.72;94959.28;4224887;28;20449;-60
2023/05/05 03:14:47;;;;;;;9.15;5.70;;;;;;;11.43;67.31;94958.97;4217108;27;20128;-60
2023/05/05 03:16:49;;;;;;;7.37;5.63;;;;;;;11.44;67.43;94955.38;4224275;28;20525;-60
2023/05/05 03:18:51;;;;;;;7.50;5.15;;;;;;;11.44;67.41;94951.91;4225654;28;20352;-60
2023/05/05 03:20:53;;;;;;;7.20;5.18;;;;;;;11.32;67.41;94955.81;4219106;28;20044;-60
2023/05/05 03:22:55;;;;;;;7.15;5.68;;;;;;;11.14;68.24;94950.63;4219989;28;20054;-58
2023/05/05 03:24:56;;;;;;;6.45;5.53;;;;;;;11.07;68.68;94948.63;4210464;28;20051;-58
2023/05/05 03:26:58;;;;;;;6.70;5.88;;;;;;;11.09;68.40;94947.66;4219219;28;20047;-60
2023/05/05 03:28:59;;;;;;;5.82;5.20;;;;;;;11.15;68.05;94954.91;4219143;28;20568;-60
2023/05/05 03:31:02;;;;;;;5.60;4.88;;;;;;;11.23;67.97;94953.16;4211491;28;20426;-60
2023/05/05 03:33:03;;;;;;;6.60;5.30;;;;;;;11.28;67.76;94956.13;4218891;28;20485;-62
2023/05/05 03:35:06;;;;;;;6.60;5.07;;;;;;;11.36;67.53;94959.78;4220963;28;20135;-62
2023/05/05 03:37:07;;;;;;;6.30;4.95;;;;;;;11.40;67.18;94947.97;4222556;28;20118;-62
2023/05/05 03:39:09;;;;;;;6.30;5.18;;;;;;;11.45;66.78;94951.75;4215920;28;20051;-61
2023/05/05 03:41:11;;;;;;;5.80;4.57;;;;;;;11.48;66.60;94953.25;4213548;28;20397;-60
2023/05/05 03:43:12;;;;;;;7.43;5.68;;;;;;;11.56;66.65;94948.03;4213472;28;20055;-59
2023/05/05 03:45:14;;;;;;;6.25;4.45;;;;;;;11.63;66.23;94945.59;4213749;28;20083;-60
2023/05/05 03:47:16;;;;;;;7.00;4.97;;;;;;;11.66;65.84;94950.53;4211986;28;20625;-58
2023/05/05 03:49:17;;;;;;;8.77;5.00;;;;;;;11.65;65.76;94947.06;4214562;28;20138;-61
2023/05/05 03:51:19;;;;;;;6.63;5.25;;;;;;;11.25;66.71;94948.56;4210450;28;20040;-62
2023/05/05 03:53:21;;;;;;;7.03;5.38;;;;;;;10.70;68.61;94956.78;4217578;28;20039;-59
2023/05/05 03:55:23;;;;;;;7.35;5.43;;;;;;;10.23;70.58;94964.88;4216155;28;20523;-61
2023/05/05 03:57:25;;;;;;;11.20;6.35;;;;;;;10.07;71.27;94960.31;4218454;28;20055;-58
2023/05/05 03:59:27;;;;;;;7.90;6.25;;;;;;;9.90;71.94;94956.72;4212371;28;20592;-61
2023/05/05 04:01:30;;;;;;;7.35;5.85;;;;;;;10.13;72.39;94958.88;4223206;28;20100;-62
2023/05/05 04:03:31;;;;;;;11.20;6.80;;;;;;;10.22;71.27;94958.81;4225422;28;20103;-62
2023/05/05 04:05:33;;;;;;;9.77;6.60;;;;;;;10.13;71.93;94966.75;4212891;28;20086;-61
2023/05/05 04:07:35;;;;;;;12.50;7.63;;;;;;;10.10;72.40;94969.69;4213593;28;20044;-60
2023/05/05 04:09:43;;;;;;;12.73;7.75;;;;;;;9.91;72.97;94970.63;4226839;28;20058;-61
2023/05/05 04:11:44;;;;;;;12.27;7.65;;;;;;;9.90;73.96;94971.63;4226855;28;20497;-62
2023/05/05 04:13:48;;;;;;;13.80;8.35;;;;;;;9.78;74.33;94971.81;4225496;28;20093;-61
2023/05/05 04:15:50;;;;;;;11.82;8.50;;;;;;;9.72;74.65;94972.41;4227260;28;20069;-62
2023/05/05 04:17:52;;;;;;;13.45;9.18;;;;;;;9.67;74.53;94979.88;4225732;28;20171;-62
2023/05/05 04:19:53;;;;;;;15.13;9.27;;;;;;;9.55;75.66;94981.03;4225873;28;20405;-62
2023/05/05 04:21:55;;;;;;;20.67;13.93;;;;;;;9.48;76.17;94980.78;4212978;28;20044;-61
2023/05/05 04:23:57;;;;;;;40.88;36.63;;;;;;;9.52;75.50;94981.31;4218657;28;20052;-61
2023/05/05 04:25:59;;;;;;;41.35;37.10;;;;;;;9.50;75.58;94981.47;4217704;28;20067;-63
2023/05/05 04:28:01;;;;;;;34.92;28.63;;;;;;;9.45;76.20;94981.09;4219903;28;20055;-61
2023/05/05 04:30:03;;;;;;;31.17;27.58;;;;;;;9.46;75.84;94981.91;4219766;28;20079;-61
2023/05/05 04:32:05;;;;;;;29.38;24.73;;;;;;;9.50;76.74;94984.06;4214673;28;20414;-60
2023/05/05 04:34:07;;;;;;;24.42;20.65;;;;;;;9.56;76.15;94993.16;4222093;28;20039;-62
2023/05/05 04:36:08;;;;;;;17.85;15.23;;;;;;;9.44;76.66;94989.88;4218748;28;20284;-61
2023/05/05 04:38:10;;;;;;;16.38;14.40;;;;;;;9.37;77.32;94994.06;4219518;28;20119;-62
2023/05/05 04:40:12;;;;;;;18.67;12.35;;;;;;;9.40;76.48;94994.59;4218739;28;20442;-62
2023/05/05 04:42:13;;;;;;;16.13;11.75;;;;;;;9.43;76.18;94990.88;4218700;28;20052;-60
2023/05/05 04:44:15;;;;;;;17.80;14.25;;;;;;;9.42;76.79;94992.66;4220620;28;20448;-62
2023/05/05 04:46:16;;;;;;;17.70;12.55;;;;;;;9.56;76.44;94991.34;4215496;28;20529;-62
2023/05/05 04:48:19;;;;;;;14.38;11.98;;;;;;;9.58;76.29;94994.63;4220143;28;20062;-64
2023/05/05 04:50:21;;;;;;;16.83;12.50;;;;;;;9.73;75.81;94989.75;4214551;28;20117;-62
2023/05/05 04:52:22;;;;;;;16.17;12.63;;;;;;;9.90;76.16;94995.16;4216666;28;20048;-62
2023/05/05 04:54:24;;;;;;;15.35;12.50;;;;;;;10.10;75.95;94994.03;4211020;28;20097;-64
2023/05/05 04:56:26;;;;;;;19.38;13.10;;;;;;;10.33;75.74;94993.66;4225541;28;20502;-62
2023/05/05 04:58:27;;;;;;;15.57;11.18;;;;;;;10.55;74.58;94993.16;4222790;28;20135;-60
2023/05/05 05:00:29;;;;;;;16.90;10.90;;;;;;;10.76;73.32;94990.22;4221232;28;20394;-60
2023/05/05 05:02:31;;;;;;;11.63;9.55;;;;;;;10.98;72.14;94995.94;4220183;28;20613;-60
2023/05/05 05:04:33;;;;;;;13.82;9.07;;;;;;;11.14;71.20;94993.44;4227152;28;20051;-62
2023/05/05 05:06:35;;;;;;;9.55;8.52;;;;;;;11.30;70.29;94989.25;4222221;28;20048;-60
2023/05/05 05:08:36;;;;;;;12.38;8.23;;;;;;;11.43;70.15;94993.06;4211463;28;20076;-61
2023/05/05 05:10:38;;;;;;;10.40;7.57;;;;;;;11.57;69.07;94996.06;4227827;28;20044;-59
2023/05/05 05:12:40;;;;;;;8.93;7.45;;;;;;;11.71;68.54;95000.72;4229249;28;20075;-62
2023/05/05 05:14:41;;;;;;;12.15;7.82;;;;;;;11.85;68.82;94999.28;4229462;28;20051;-61
2023/05/05 05:16:43;;;;;;;7.43;6.47;;;;;;;11.99;67.58;95005.78;4228648;28;20054;-62
2023/05/05 05:18:45;;;;;;;7.50;6.70;;;;;;;12.06;67.20;95002.34;4227222;28;20510;-62
2023/05/05 05:20:46;;;;;;;11.77;7.35;;;;;;;12.17;66.84;95005.66;4228597;28;20054;-61
2023/05/05 05:22:48;;;;;;;10.52;7.30;;;;;;;12.26;66.64;95008.13;4226056;28;20054;-61
2023/05/05 05:24:51;;;;;;;13.90;7.22;;;;;;;12.35;66.43;95001.09;4230027;28;20055;-62
2023/05/05 05:26:52;;;;;;;8.90;6.40;;;;;;;12.45;66.06;95004.38;4216245;28;20382;-57
2023/05/05 05:28:54;;;;;;;7.00;6.30;;;;;;;12.56;65.59;95010.28;4230133;28;20548;-62
2023/05/05 05:30:56;;;;;;;7.72;5.90;;;;;;;12.65;65.25;95014.59;4225359;28;20541;-61
2023/05/05 05:32:57;;;;;;;8.55;5.68;;;;;;;12.73;64.72;95005.88;4223651;28;20122;-61
2023/05/05 05:34:59;;;;;;;7.82;5.63;;;;;;;12.78;64.07;95008.84;4228071;28;20047;-62
2023/05/05 05:37:01;;;;;;;9.35;5.40;;;;;;;12.86;64.04;95019.31;4228433;28;20044;-61
2023/05/05 05:39:02;;;;;;;6.60;4.47;;;;;;;12.98;63.41;95018.00;4229838;28;20097;-65
2023/05/05 05:41:06;;;;;;;6.97;4.97;;;;;;;12.97;62.73;95010.28;4221390;28;20108;-61
2023/05/05 05:43:08;;;;;;;5.88;4.75;;;;;;;13.02;62.45;95014.06;4229063;28;20058;-60
2023/05/05 05:45:09;;;;;;;9.38;5.68;;;;;;;13.00;62.40;95016.03;4230309;28;20052;-61
2023/05/05 05:47:11;;;;;;;10.85;7.40;;;;;;;12.64;63.32;95011.13;4226462;28;20104;-65
2023/05/05 05:49:13;;;;;;;15.38;7.30;;;;;;;12.33;64.49;95012.75;4229854;28;20078;-63
2023/05/05 05:51:14;;;;;;;11.10;7.30;;;;;;;12.37;65.32;95014.03;4221258;28;20052;-62
2023/05/05 05:53:16;;;;;;;11.30;7.07;;;;;;;12.45;64.71;95001.75;4215591;28;20075;-63
2023/05/05 05:55:18;;;;;;;13.55;8.43;;;;;;;12.57;64.56;95020.66;4219016;28;20545;-60
2023/05/05 05:57:21;;;;;;;13.77;8.15;;;;;;;12.60;64.31;95024.75;4225665;28;20059;-63
2023/05/05 05:59:22;;;;;;;12.53;8.00;;;;;;;12.27;64.80;95020.28;4220038;28;20051;-61
2023/05/05 06:01:24;;;;;;;12.85;7.93;;;;;;;11.96;66.17;95021.84;4217340;28;20587;-60
2023/05/05 06:03:26;;;;;;;14.65;7.90;;;;;;;12.10;66.20;95015.97;4225896;28;20081;-64
2023/05/05 06:05:27;;;;;;;11.18;7.68;;;;;;;12.27;65.69;95012.41;4225940;28;20101;-62
2023/05/05 06:07:29;;;;;;;15.88;8.13;;;;;;;12.40;65.36;95013.75;4227937;28;20051;-61
2023/05/05 06:09:31;;;;;;;10.27;8.10;;;;;;;12.59;64.63;95020.50;4229510;28;20086;-62
2023/05/05 06:11:33;;;;;;;13.70;7.82;;;;;;;12.74;64.34;95012.78;4230213;28;20047;-63
2023/05/05 06:13:35;;;;;;;12.55;8.02;;;;;;;12.90;64.13;95020.63;4227764;28;20051;-62
2023/05/05 06:15:37;;;;;;;17.55;8.07;;;;;;;13.04;63.13;95019.16;4229070;28;20063;-62
2023/05/05 06:17:38;;;;;;;13.90;7.60;;;;;;;13.04;62.23;95017.34;4227857;28;20046;-60
2023/05/05 06:19:40;;;;;;;10.50;7.25;;;;;;;13.09;61.87;95022.09;4217249;28;20585;-64
2023/05/05 06:21:42;;;;;;;16.67;7.72;;;;;;;13.11;62.13;95015.69;4224790;28;20085;-64
2023/05/05 06:23:43;;;;;;;10.98;7.60;;;;;;;13.14;62.32;95017.16;4224398;28;20535;-62
2023/05/05 06:25:45;;;;;;;11.55;7.47;;;;;;;13.13;62.23;95027.88;4226238;28;20044;-63
2023/05/05 06:27:47;;;;;;;7.22;6.10;;;;;;;13.17;61.90;95027.38;4225649;27;20101;-60
2023/05/05 06:29:48;;;;;;;9.18;6.20;;;;;;;13.29;61.78;95020.81;4223372;28;20116;-62
2023/05/05 06:31:50;;;;;;;8.20;6.18;;;;;;;13.42;61.33;95020.28;4208753;28;20055;-63
2023/05/05 06:33:52;;;;;;;12.88;5.80;;;;;;;13.46;61.03;95026.81;4220273;28;20504;-62
2023/05/05 06:35:54;;;;;;;6.32;5.10;;;;;;;13.56;60.21;95023.19;4212702;28;20044;-62
2023/05/05 06:37:55;;;;;;;5.20;4.28;;;;;;;13.67;60.09;95028.09;4221770;28;20706;-62
2023/05/05 06:39:57;;;;;;;8.40;4.10;;;;;;;13.80;60.11;95017.84;4214545;28;20052;-63
2023/05/05 06:41:58;;;;;;;7.18;4.15;;;;;;;13.92;59.00;95023.56;4219387;28;20048;-63
2023/05/05 06:44:00;;;;;;;8.85;4.35;;;;;;;13.79;59.15;95020.63;4214827;28;20060;-64
2023/05/05 06:46:02;;;;;;;6.53;4.28;;;;;;;13.87;58.78;95020.59;4214024;28;20058;-63
2023/05/05 06:48:03;;;;;;;3.70;2.90;;;;;;;13.83;58.01;95014.03;4214815;28;20083;-64
2023/05/05 06:50:07;;;;;;;5.80;3.40;;;;;;;13.82;58.16;95015.84;4214276;28;20071;-63
2023/05/05 06:52:09;;;;;;;4.93;2.70;;;;;;;13.92;58.06;95019.09;4214318;28;20488;-63
2023/05/05 06:54:11;;;;;;;14.60;9.45;;;;;;;13.95;57.43;95010.03;4213194;28;20474;-61
2023/05/05 06:56:12;;;;;;;3.65;2.47;;;;;;;13.89;57.45;95011.53;4225363;28;20115;-65
2023/05/05 06:58:14;;;;;;;4.78;3.35;;;;;;;13.93;57.73;95014.66;4224808;28;20075;-64
2023/05/05 07:00:16;;;;;;;6.03;3.47;;;;;;;13.97;57.54;95008.03;4224352;28;20075;-63
2023/05/05 07:02:18;;;;;;;3.90;3.17;;;;;;;14.00;57.90;95012.16;4212011;27;20171;-63
2023/05/05 07:04:20;;;;;;;6.75;3.47;;;;;;;13.93;57.41;95010.19;4228274;28;20063;-62
2023/05/05 07:06:22;;;;;;;6.00;3.22;;;;;;;13.62;58.31;95014.63;4227597;27;20866;-62
2023/05/05 07:08:24;;;;;;;3.58;3.13;;;;;;;13.42;58.49;95008.91;4229217;28;20067;-62
2023/05/05 07:10:26;;;;;;;5.53;3.08;;;;;;;12.92;60.50;95016.03;4226741;28;20051;-63
2023/05/05 07:12:29;;;;;;;6.20;3.10;;;;;;;12.89;60.90;95008.50;4223809;28;20040;-63
2023/05/05 07:14:31;;;;;;;3.70;2.75;;;;;;;13.07;60.61;95011.75;4221987;28;20090;-61
2023/05/05 07:16:33;;;;;;;3.45;2.58;;;;;;;13.26;60.51;95005.31;4228272;28;20142;-62
2023/05/05 07:18:35;;;;;;;12.25;5.82;;;;;;;13.31;59.72;95012.72;4225991;28;20123;-64
2023/05/05 07:20:37;;;;;;;11.25;4.30;;;;;;;13.32;59.62;95009.13;4228382;28;20675;-62
2023/05/05 07:22:38;;;;;;;6.95;3.95;;;;;;;13.17;59.99;95008.94;4225438;28;20092;-59
2023/05/05 07:24:40;;;;;;;4.35;3.05;;;;;;;13.17;60.71;95011.56;4220072;28;20647;-62
2023/05/05 07:26:42;;;;;;;6.28;3.17;;;;;;;13.17;60.64;95005.50;4224380;28;20073;-63
2023/05/05 07:28:44;;;;;;;8.68;4.18;;;;;;;13.38;60.56;95000.56;4223921;28;20052;-61
2023/05/05 07:30:45;;;;;;;6.68;4.50;;;;;;;13.61;59.71;94991.91;4214051;28;20063;-63
2023/05/05 07:32:48;;;;;;;6.47;3.45;;;;;;;13.80;59.70;94988.88;4220660;28;20051;-69
2023/05/05 07:34:50;;;;;;;4.57;2.83;;;;;;;13.97;59.91;94989.59;4227422;28;20096;-67
2023/05/05 07:36:51;;;;;;;4.63;2.75;;;;;;;14.19;59.15;95001.19;4224944;28;20560;-61
2023/05/05 07:38:53;;;;;;;3.50;2.65;;;;;;;14.37;58.12;95000.91;4219222;28;20500;-64
2023/05/05 07:40:55;;;;;;;4.25;2.78;;;;;;;14.53;58.06;95007.88;4217462;28;20083;-62
2023/05/05 07:42:56;;;;;;;4.05;2.50;;;;;;;14.72;58.07;95006.63;4225905;28;20108;-64
2023/05/05 07:44:58;;;;;;;12.55;3.47;;;;;;;14.75;56.65;95006.25;4226969;28;20108;-64
2023/05/05 07:47:00;;;;;;;6.90;3.15;;;;;;;14.82;56.80;95001.09;4214155;28;20476;-65
2023/05/05 07:49:02;;;;;;;4.93;2.92;;;;;;;14.97;56.63;95001.13;4213844;28;20052;-63
2023/05/05 07:51:04;;;;;;;22.65;3.92;;;;;;;14.95;55.81;95001.34;4227272;28;20051;-64
2023/05/05 07:53:06;;;;;;;8.27;3.50;;;;;;;14.86;55.98;95010.28;4219745;28;20048;-61
2023/05/05 07:55:15;;;;;;;5.00;3.28;;;;;;;14.87;55.45;95001.41;4227610;28;20044;-62
2023/05/05 07:57:17;;;;;;;4.43;3.15;;;;;;;14.80;55.37;95003.94;4225582;28;20048;-64
2023/05/05 07:59:39;;;;;;;4.35;2.95;;;;;;;14.83;55.31;95008.03;4220084;28;20047;-63
2023/05/05 08:01:41;;;;;;;3.65;3.05;;;;;;;14.69;55.53;95012.22;4198693;28;20111;-62
2023/05/05 08:03:43;;;;;;;4.10;3.10;;;;;;;14.89;55.96;95007.31;4220253;28;20048;-61
2023/05/05 08:05:45;;;;;;;4.53;3.67;;;;;;;15.06;54.85;95003.53;4214302;28;20126;-61
2023/05/05 08:07:47;;;;;;;5.90;3.63;;;;;;;14.83;55.57;95005.38;4225734;28;20346;-61
2023/05/05 08:09:49;;;;;;;4.90;3.28;;;;;;;15.04;55.25;95002.88;4225747;28;20476;-61
2023/05/05 08:11:50;;;;;;;5.53;3.20;;;;;;;15.24;55.24;95005.81;4225784;28;20052;-62
2023/05/05 08:13:52;;;;;;;4.55;3.13;;;;;;;15.33;54.73;95001.28;4226040;28;20117;-62
2023/05/05 08:15:54;;;;;;;5.97;3.15;;;;;;;15.57;54.20;95003.66;4227088;28;20711;-62
2023/05/05 08:17:56;;;;;;;4.63;3.13;;;;;;;15.83;53.62;95002.41;4226873;28;20039;-61
2023/05/05 08:19:58;;;;;;;4.88;3.22;;;;;;;15.94;53.45;94994.00;4211846;28;20110;-60
2023/05/05 08:22:00;;;;;;;4.78;3.42;;;;;;;15.93;53.46;94995.00;4224907;28;20059;-61
2023/05/05 08:24:02;;;;;;;13.35;3.90;;;;;;;15.85;53.54;94989.84;4226498;28;20131;-61
2023/05/05 08:26:05;;;;;;;7.57;3.58;;;;;;;15.82;53.33;94986.75;4226887;28;20551;-63
2023/05/05 08:28:06;;;;;;;6.25;4.25;;;;;;;15.43;53.61;94986.00;4227445;28;20046;-64
2023/05/05 08:30:08;;;;;;;4.78;3.90;;;;;;;14.99;54.20;94981.47;4226063;28;20058;-63
2023/05/05 08:32:10;;;;;;;5.30;3.67;;;;;;;14.73;54.68;94984.50;4204339;28;20081;-64
2023/05/05 08:34:12;;;;;;;6.85;3.85;;;;;;;14.99;54.67;94973.56;4226010;28;20501;-59
2023/05/05 08:36:13;;;;;;;4.50;3.15;;;;;;;15.25;53.81;94969.69;4220817;28;20075;-60
2023/05/05 08:38:16;;;;;;;4.50;3.38;;;;;;;15.50;53.46;94978.97;4225884;28;20048;-63
2023/05/05 08:40:19;;;;;;;4.22;3.28;;;;;;;15.93;53.32;94971.22;4226903;28;20486;-62
2023/05/05 08:42:21;;;;;;;3.72;2.65;;;;;;;15.88;51.60;94980.72;4216893;27;20052;-61
2023/05/05 08:44:38;;;;;;;5.72;3.03;;;;;;;15.24;52.72;94983.91;4214482;28;20409;-59
2023/05/05 08:46:40;;;;;;;3.72;2.75;;;;;;;15.02;53.05;94982.97;4222356;28;20056;-62
2023/05/05 08:48:43;;;;;;;6.40;2.50;;;;;;;15.11;53.44;94981.88;4215085;28;20080;-62
2023/05/05 08:50:48;;;;;;;4.70;2.42;;;;;;;15.42;52.53;94971.16;4220288;28;20040;-62
2023/05/05 08:52:53;;;;;;;5.90;2.88;;;;;;;15.75;51.59;94968.97;4223066;28;20054;-62
2023/05/05 08:55:17;;;;;;;4.35;2.72;;;;;;;16.07;51.69;94968.75;4201151;28;20043;-60
2023/05/05 08:57:24;;;;;;;3.28;2.53;;;;;;;16.62;51.34;94971.75;4218019;28;20051;-61
2023/05/05 08:59:29;;;;;;;4.75;2.90;;;;;;;17.02;50.01;94964.19;4221599;28;20201;-63
2023/05/05 09:01:32;;;;;;;5.30;2.63;;;;;;;17.22;49.51;94966.94;4224070;28;20437;-63
2023/05/05 09:03:35;;;;;;;3.17;2.58;;;;;;;16.81;49.51;94970.31;4225939;28;20043;-61
2023/05/05 09:05:37;;;;;;;4.47;2.92;;;;;;;16.06;51.82;94977.66;4224736;28;20048;-61
2023/05/05 09:07:40;;;;;;;3.97;2.85;;;;;;;15.38;53.19;94967.25;4225363;28;20070;-58
2023/05/05 09:09:42;;;;;;;3.60;2.72;;;;;;;15.08;55.04;94971.69;4225859;28;20154;-60
2023/05/05 09:11:44;;;;;;;5.05;2.97;;;;;;;15.19;55.31;94970.44;4227998;28;20466;-62
2023/05/05 09:13:46;;;;;;;6.65;3.22;;;;;;;15.19;55.85;94973.06;4221785;28;20532;-64
2023/05/05 09:15:48;;;;;;;5.95;2.70;;;;;;;14.98;56.08;94968.50;4217305;28;20089;-62
2023/05/05 09:17:49;;;;;;;3.92;2.58;;;;;;;15.11;55.59;94972.13;4225299;28;20126;-63
2023/05/05 09:20:06;;;;;;;4.38;3.05;;;;;;;15.24;55.74;94965.41;4223645;28;20079;-63
2023/05/05 09:22:07;;;;;;;3.20;2.30;;;;;;;14.64;56.87;94967.94;4223565;28;20092;-64
2023/05/05 09:24:11;;;;;;;3.92;2.97;;;;;;;14.69;57.57;94970.03;4218480;28;20382;-60
2023/05/05 09:26:13;;;;;;;5.22;2.40;;;;;;;14.92;56.87;94964.75;4217317;28;20694;-64
2023/05/05 09:28:17;;;;;;;4.50;2.95;;;;;;;15.14;56.71;94968.31;4218802;28;20604;-63
2023/05/05 09:30:28;;;;;;;4.13;2.85;;;;;;;15.09;56.55;94963.56;4220616;28;20040;-63
2023/05/05 09:32:31;;;;;;;5.15;2.80;;;;;;;14.66;57.20;94962.50;4215515;28;20254;-61
2023/05/05 09:34:34;;;;;;;4.82;3.30;;;;;;;14.73;57.42;94959.00;4217825;28;20142;-61
2023/05/05 09:36:43;;;;;;;6.40;3.55;;;;;;;14.93;56.68;94966.41;4213055;28;20135;-60